createdAt,value
2018-04-19T00:00:08.650Z,5.30
2018-04-19T00:02:36.814Z,5.20
2018-04-19T00:05:05.817Z,5.27
2018-04-19T00:07:33.937Z,6.00
2018-04-19T00:10:02.155Z,5.23
2018-04-19T00:12:31.038Z,5.77
2018-04-19T00:14:59.921Z,6.07
2018-04-19T00:17:28.810Z,6.20
2018-04-19T00:19:57.735Z,6.80
2018-04-19T00:22:25.847Z,6.50
2018-04-19T00:24:53.982Z,6.23
2018-04-19T00:27:22.147Z,6.83
2018-04-19T00:29:50.310Z,6.43
2018-04-19T00:32:18.426Z,6.37
2018-04-19T00:34:46.590Z,6.70
2018-04-19T00:37:14.718Z,6.70
2018-04-19T00:39:43.605Z,6.90
2018-04-19T00:42:12.490Z,6.60
2018-04-19T00:44:40.618Z,6.90
2018-04-19T00:47:08.762Z,6.70
2018-04-19T00:49:36.874Z,6.87
2018-04-19T00:52:05.002Z,6.47
2018-04-19T00:54:33.134Z,6.97
2018-04-19T00:57:01.362Z,6.80
2018-04-19T00:59:29.472Z,7.27
2018-04-19T01:01:57.606Z,7.23
2018-04-19T01:04:25.760Z,7.00
2018-04-19T01:06:54.648Z,6.77
2018-04-19T01:09:23.530Z,6.47
2018-04-19T01:11:52.415Z,6.90
2018-04-19T01:14:20.560Z,7.27
2018-04-19T01:16:48.688Z,7.37
2018-04-19T01:19:17.585Z,6.23
2018-04-19T01:21:45.705Z,6.80
2018-04-19T01:24:13.931Z,6.80
2018-04-19T01:26:42.927Z,6.60
2018-04-19T01:29:11.044Z,6.90
2018-04-19T01:31:39.278Z,7.10
2018-04-19T01:34:07.402Z,7.40
2018-04-19T01:36:35.527Z,6.83
2018-04-19T01:39:03.649Z,7.43
2018-04-19T01:41:31.787Z,6.90
2018-04-19T01:43:59.898Z,6.97
2018-04-19T01:46:28.018Z,6.63
2018-04-19T01:48:56.152Z,6.97
2018-04-19T01:51:25.778Z,6.50
2018-04-19T01:53:54.730Z,7.17
2018-04-19T01:56:22.868Z,6.57
2018-04-19T01:58:51.014Z,7.53
2018-04-19T02:01:19.892Z,6.60
2018-04-19T02:03:47.999Z,7.00
2018-04-19T02:06:16.130Z,6.93
2018-04-19T02:08:45.042Z,6.57
2018-04-19T02:11:13.925Z,7.30
2018-04-19T02:13:42.806Z,6.53
2018-04-19T02:16:11.722Z,6.90
2018-04-19T02:18:39.854Z,6.40
2018-04-19T02:21:07.966Z,6.90
2018-04-19T02:23:36.085Z,6.50
2018-04-19T02:26:04.222Z,7.10
2018-04-19T02:28:32.383Z,6.63
2018-04-19T02:31:01.262Z,6.93
2018-04-19T02:33:30.167Z,6.63
2018-04-19T02:35:59.041Z,6.97
2018-04-19T02:38:27.936Z,6.87
2018-04-19T02:40:56.829Z,6.10
2018-04-19T02:43:25.720Z,6.50
2018-04-19T02:45:54.627Z,6.50
2018-04-19T02:48:22.759Z,6.70
2018-04-19T02:50:50.886Z,6.57
2018-04-19T02:53:19.039Z,6.60
2018-04-19T02:55:47.181Z,6.97
2018-04-19T02:58:15.383Z,6.73
2018-04-19T03:00:43.563Z,6.50
2018-04-19T03:03:11.711Z,6.13
2018-04-19T03:05:40.633Z,6.70
2018-04-19T03:08:08.746Z,6.30
2018-04-19T03:10:36.979Z,6.73
2018-04-19T03:13:05.153Z,7.07
2018-04-19T03:15:33.276Z,6.53
2018-04-19T03:18:01.398Z,6.90
2018-04-19T03:20:29.531Z,7.00
2018-04-19T03:22:59.157Z,7.00
2018-04-19T03:25:28.039Z,7.50
2018-04-19T03:27:56.151Z,7.50
2018-04-19T03:30:24.277Z,7.80
2018-04-19T03:32:52.399Z,7.50
2018-04-19T03:35:20.521Z,7.60
2018-04-19T03:37:48.661Z,8.20
2018-04-19T03:40:16.799Z,7.97
2018-04-19T03:42:45.696Z,8.03
2018-04-19T03:45:13.847Z,7.83
2018-04-19T03:47:42.758Z,8.00
2018-04-19T03:50:10.886Z,7.57
2018-04-19T03:52:40.514Z,8.37
2018-04-19T03:55:09.424Z,8.70
2018-04-19T03:57:38.314Z,8.43
2018-04-19T04:00:06.432Z,8.47
2018-04-19T04:02:34.570Z,8.23
2018-04-19T04:05:02.738Z,8.10
2018-04-19T04:07:30.906Z,8.40
2018-04-19T04:09:59.021Z,8.23
2018-04-19T04:12:27.173Z,8.53
2018-04-19T04:14:55.315Z,8.77
2018-04-19T04:17:36.079Z,8.60
2018-04-19T04:23:22.550Z,8.80
2018-04-19T04:25:50.671Z,8.83
2018-04-19T04:28:19.560Z,9.30
2018-04-19T04:30:47.718Z,9.13
2018-04-19T04:33:15.831Z,9.27
2018-04-19T04:35:44.710Z,8.63
2018-04-19T04:38:13.594Z,9.00
2018-04-19T04:40:42.470Z,8.67
2018-04-19T04:43:11.112Z,9.20
2018-04-19T04:45:39.226Z,8.73
2018-04-19T04:48:07.350Z,8.80
2018-04-19T04:50:35.530Z,8.70
2018-04-19T04:53:03.638Z,8.73
2018-04-19T04:55:31.750Z,8.50
2018-04-19T04:57:59.909Z,8.73
2018-04-19T05:00:28.817Z,9.07
2018-04-19T05:02:57.896Z,8.97
2018-04-19T05:05:26.772Z,8.43
2018-04-19T05:07:54.883Z,8.67
2018-04-19T05:10:23.001Z,9.23
2018-04-19T05:12:51.159Z,8.90
2018-04-19T05:15:19.299Z,9.30
2018-04-19T05:17:47.418Z,8.90
2018-04-19T05:20:15.596Z,9.40
2018-04-19T05:22:43.714Z,9.27
2018-04-19T05:25:11.841Z,9.30
2018-04-19T05:27:40.722Z,8.80
2018-04-19T05:30:08.849Z,8.97
2018-04-19T05:32:36.994Z,9.20
2018-04-19T05:35:05.107Z,8.97
2018-04-19T05:37:33.214Z,8.60
2018-04-19T05:40:01.353Z,8.73
2018-04-19T05:42:29.501Z,9.03
2018-04-19T05:44:58.385Z,9.33
2018-04-19T05:47:27.297Z,10.33
2018-04-19T05:49:55.427Z,9.07
2018-04-19T05:52:23.597Z,8.90
2018-04-19T05:54:51.711Z,9.40
2018-04-19T05:57:19.821Z,9.00
2018-04-19T05:59:47.950Z,9.30
2018-04-19T06:02:16.094Z,9.50
2018-04-19T06:04:44.227Z,9.53
2018-04-19T06:07:12.344Z,9.13
2018-04-19T06:09:40.453Z,8.47
2018-04-19T06:12:08.617Z,9.20
2018-04-19T06:14:36.751Z,9.17
2018-04-19T06:17:06.399Z,8.57
2018-04-19T06:19:34.541Z,7.87
2018-04-19T06:22:02.676Z,8.07
2018-04-19T06:24:30.797Z,8.60
2018-04-19T06:26:59.714Z,8.47
2018-04-19T06:29:27.835Z,8.90
2018-04-19T06:31:55.980Z,8.97
2018-04-19T06:34:24.091Z,8.50
2018-04-19T06:36:52.243Z,9.17
2018-04-19T06:39:20.398Z,8.90
2018-04-19T06:41:48.508Z,8.50
2018-04-19T06:44:16.628Z,8.67
2018-04-19T06:46:44.764Z,8.57
2018-04-19T06:49:13.642Z,9.00
2018-04-19T06:51:41.776Z,9.70
2018-04-19T06:54:09.942Z,9.30
2018-04-19T06:56:38.094Z,9.30
2018-04-19T06:59:06.266Z,8.17
2018-04-19T07:01:35.163Z,8.50
2018-04-19T07:04:03.295Z,8.40
2018-04-19T07:06:31.499Z,8.00
2018-04-19T07:08:59.554Z,8.43
2018-04-19T07:11:27.655Z,8.00
2018-04-19T07:13:55.826Z,7.60
2018-04-19T07:16:24.718Z,7.93
2018-04-19T07:18:52.894Z,7.63
2018-04-19T07:21:21.770Z,8.00
2018-04-19T07:23:50.686Z,7.90
2018-04-19T07:26:18.834Z,7.40
2018-04-19T07:28:47.720Z,7.80
2018-04-19T07:31:16.595Z,8.10
2018-04-19T07:33:44.726Z,9.33
2018-04-19T07:36:12.860Z,7.53
2018-04-19T07:38:41.746Z,6.90
2018-04-19T07:41:10.646Z,7.10
2018-04-19T07:43:39.534Z,6.53
2018-04-19T07:46:08.455Z,7.07
2018-04-19T07:48:36.554Z,7.10
2018-04-19T07:51:04.673Z,8.40
2018-04-19T07:53:33.576Z,7.60
2018-04-19T07:56:02.463Z,6.80
2018-04-19T07:58:30.593Z,7.13
2018-04-19T08:00:58.681Z,6.90
2018-04-19T08:03:26.846Z,6.77
2018-04-19T08:05:55.059Z,6.53
2018-04-19T08:08:23.257Z,6.67
2018-04-19T08:10:51.362Z,7.20
2018-04-19T08:13:19.586Z,7.20
2018-04-19T08:15:47.730Z,6.57
2018-04-19T08:18:16.602Z,7.73
2018-04-19T08:20:44.754Z,7.20
2018-04-19T08:23:12.869Z,7.17
2018-04-19T08:25:41.808Z,7.40
2018-04-19T08:28:09.937Z,7.40
2018-04-19T08:30:38.030Z,7.37
2018-04-19T08:33:06.186Z,7.27
2018-04-19T08:35:35.066Z,7.47
2018-04-19T08:38:04.815Z,6.60
2018-04-19T08:40:32.915Z,6.93
2018-04-19T08:43:01.041Z,6.47
2018-04-19T08:45:30.013Z,7.43
2018-04-19T08:47:58.117Z,7.70
2018-04-19T08:50:26.236Z,7.03
2018-04-19T08:52:54.347Z,7.60
2018-04-19T08:55:23.227Z,7.47
2018-04-19T08:57:52.147Z,7.73
2018-04-19T09:00:20.255Z,8.07
2018-04-19T09:02:48.393Z,7.87
2018-04-19T09:05:17.282Z,7.77
2018-04-19T09:07:45.421Z,7.70
2018-04-19T09:10:13.551Z,7.30
2018-04-19T09:12:41.683Z,7.60
2018-04-19T09:15:10.679Z,7.17
2018-04-19T09:17:39.593Z,7.10
2018-04-19T09:20:07.705Z,7.20
2018-04-19T09:22:35.917Z,7.10
2018-04-19T09:25:04.843Z,7.17
2018-04-19T09:27:33.013Z,7.30
2018-04-19T09:30:01.117Z,7.23
2018-04-19T09:32:29.225Z,6.50
2018-04-19T09:34:58.143Z,6.93
2018-04-19T09:37:27.040Z,6.90
2018-04-19T09:39:55.136Z,7.60
2018-04-19T09:42:23.247Z,6.47
2018-04-19T09:44:51.407Z,6.80
2018-04-19T09:47:19.518Z,6.60
2018-04-19T09:49:47.628Z,6.47
2018-04-19T09:52:15.754Z,6.37
2018-04-19T09:54:43.916Z,6.10
2018-04-19T09:57:12.820Z,6.13
2018-04-19T09:59:40.932Z,7.00
2018-04-19T10:02:09.088Z,6.67
2018-04-19T10:04:37.183Z,5.80
2018-04-19T10:07:05.301Z,5.57
2018-04-19T10:09:34.298Z,5.43
2018-04-19T10:12:02.420Z,5.70
2018-04-19T10:14:30.526Z,5.10
2018-04-19T10:16:59.434Z,5.23
2018-04-19T10:19:28.357Z,5.43
2018-04-19T10:21:56.497Z,5.20
2018-04-19T10:24:25.449Z,5.63
2018-04-19T10:26:53.572Z,5.40
2018-04-19T10:29:22.443Z,4.90
2018-04-19T10:31:51.333Z,5.63
2018-04-19T10:34:20.252Z,4.87
2018-04-19T10:36:48.371Z,5.60
2018-04-19T10:39:17.335Z,4.77
2018-04-19T10:41:45.439Z,4.83
2018-04-19T10:44:13.649Z,4.83
2018-04-19T10:46:42.564Z,4.63
2018-04-19T10:49:10.787Z,4.80
2018-04-19T10:51:38.840Z,4.60
2018-04-19T10:54:06.958Z,4.93
2018-04-19T10:56:35.838Z,5.00
2018-04-19T10:59:04.751Z,4.30
2018-04-19T11:01:32.866Z,4.37
2018-04-19T11:04:00.974Z,4.00
2018-04-19T11:06:29.854Z,4.20
2018-04-19T11:08:57.965Z,3.60
2018-04-19T11:11:26.123Z,3.57
2018-04-19T11:13:55.146Z,3.90
2018-04-19T11:16:23.247Z,3.57
2018-04-19T11:18:51.466Z,4.00
2018-04-19T11:21:19.569Z,3.50
2018-04-19T11:23:47.668Z,3.60
2018-04-19T11:26:15.819Z,3.30
2018-04-19T11:28:43.945Z,3.60
2018-04-19T11:31:12.832Z,3.50
2018-04-19T11:33:41.715Z,3.73
2018-04-19T11:36:09.838Z,3.13
2018-04-19T11:38:37.938Z,3.33
2018-04-19T11:41:06.054Z,3.20
2018-04-19T11:43:34.972Z,3.00
2018-04-19T11:46:03.104Z,3.20
2018-04-19T11:48:31.216Z,3.20
2018-04-19T11:50:59.494Z,3.00
2018-04-19T11:53:27.570Z,3.10
2018-04-19T11:55:55.674Z,2.97
2018-04-19T11:58:23.917Z,3.30
2018-04-19T12:00:52.074Z,2.90
2018-04-19T12:03:20.213Z,3.20
2018-04-19T12:05:48.351Z,3.20
2018-04-19T12:08:16.496Z,3.77
2018-04-19T12:10:44.606Z,3.43
2018-04-19T12:13:12.758Z,3.10
2018-04-19T12:15:40.864Z,3.50
2018-04-19T12:18:09.016Z,3.20
2018-04-19T12:20:37.114Z,2.90
2018-04-19T12:23:06.751Z,3.07
2018-04-19T12:25:36.433Z,2.90
2018-04-19T12:28:04.521Z,3.20
2018-04-19T12:30:32.646Z,3.23
2018-04-19T12:33:00.746Z,3.20
2018-04-19T12:35:28.853Z,3.37
2018-04-19T12:37:57.789Z,3.13
2018-04-19T12:40:25.906Z,3.20
2018-04-19T12:42:54.781Z,2.97
2018-04-19T12:45:22.933Z,3.27
2018-04-19T12:47:51.038Z,3.00
2018-04-19T12:50:19.962Z,3.07
2018-04-19T12:52:48.148Z,3.13
2018-04-19T12:55:16.248Z,3.60
2018-04-19T12:57:44.353Z,3.50
2018-04-19T13:00:13.241Z,2.87
2018-04-19T13:02:42.113Z,3.33
2018-04-19T13:05:10.246Z,3.60
2018-04-19T13:07:38.397Z,2.80
2018-04-19T13:10:06.555Z,2.90
2018-04-19T13:12:35.545Z,3.10
2018-04-19T13:15:04.429Z,3.43
2018-04-19T13:17:32.550Z,2.97
2018-04-19T13:20:00.670Z,2.50
2018-04-19T13:22:28.800Z,2.70
2018-04-19T13:24:56.904Z,2.60
2018-04-19T13:27:25.014Z,2.87
2018-04-19T13:29:53.908Z,3.07
2018-04-19T13:32:22.107Z,2.80
2018-04-19T13:34:50.186Z,2.80
2018-04-19T13:37:18.308Z,2.80
2018-04-19T13:39:47.217Z,2.70
2018-04-19T13:42:15.361Z,2.70
2018-04-19T13:44:43.487Z,2.60
2018-04-19T13:47:11.634Z,2.80
2018-04-19T13:49:40.523Z,2.47
2018-04-19T13:52:09.409Z,2.47
2018-04-19T13:54:38.279Z,2.33
2018-04-19T13:57:07.943Z,2.47
2018-04-19T13:59:36.091Z,2.80
2018-04-19T14:02:04.998Z,2.50
2018-04-19T14:04:33.898Z,2.60
2018-04-19T14:07:01.995Z,2.80
2018-04-19T14:09:30.109Z,2.70
2018-04-19T14:11:59.040Z,2.63
2018-04-19T14:14:27.145Z,2.50
2018-04-19T14:16:55.274Z,2.47
2018-04-19T14:19:23.386Z,2.40
2018-04-19T14:21:51.494Z,2.43
2018-04-19T14:24:20.360Z,2.70
2018-04-19T14:26:48.525Z,2.63
2018-04-19T14:29:16.663Z,3.27
2018-04-19T14:31:44.918Z,2.87
2018-04-19T14:34:13.023Z,2.73
2018-04-19T14:36:41.127Z,2.57
2018-04-19T14:39:09.361Z,2.33
2018-04-19T14:41:37.472Z,2.73
2018-04-19T14:44:05.612Z,2.73
2018-04-19T14:46:33.708Z,2.67
2018-04-19T14:49:01.838Z,2.50
2018-04-19T14:51:29.950Z,2.50
2018-04-19T14:53:58.074Z,2.50
2018-04-19T14:56:26.959Z,2.90
2018-04-19T14:58:55.966Z,2.20
2018-04-19T15:01:24.214Z,2.60
2018-04-19T15:03:53.102Z,2.73
2018-04-19T15:06:21.214Z,2.60
2018-04-19T15:08:50.098Z,2.50
2018-04-19T15:11:18.234Z,2.70
2018-04-19T15:13:46.328Z,2.67
2018-04-19T15:16:15.272Z,2.87
2018-04-19T15:18:44.167Z,2.70
2018-04-19T15:21:12.320Z,2.90
2018-04-19T15:23:40.425Z,2.80
2018-04-19T15:26:08.532Z,2.70
2018-04-19T15:28:37.555Z,2.57
2018-04-19T15:31:05.729Z,2.77
2018-04-19T15:33:33.813Z,2.70
2018-04-19T15:36:01.969Z,3.00
2018-04-19T15:38:30.150Z,2.87
2018-04-19T15:40:58.257Z,2.80
2018-04-19T15:43:26.392Z,3.00
2018-04-19T15:45:54.489Z,2.60
2018-04-19T15:48:22.618Z,2.90
2018-04-19T15:50:50.763Z,2.63
2018-04-19T15:53:18.876Z,2.60
2018-04-19T15:55:46.989Z,2.80
2018-04-19T15:58:15.229Z,2.90
2018-04-19T16:00:43.403Z,2.87
2018-04-19T16:03:11.562Z,2.90
2018-04-19T16:05:39.682Z,2.70
2018-04-19T16:08:07.799Z,2.80
2018-04-19T16:10:36.688Z,2.97
2018-04-19T16:13:05.677Z,2.97
2018-04-19T16:15:34.553Z,2.90
2018-04-19T16:18:02.773Z,4.33
2018-04-19T16:20:30.897Z,2.93
2018-04-19T16:22:59.040Z,2.80
2018-04-19T16:25:27.254Z,2.87
2018-04-19T16:27:56.140Z,2.90
2018-04-19T16:30:24.310Z,2.80
2018-04-19T16:32:52.441Z,2.80
2018-04-19T16:35:20.585Z,2.73
2018-04-19T16:37:48.755Z,2.73
2018-04-19T16:40:17.667Z,2.83
2018-04-19T16:42:45.844Z,2.63
2018-04-19T16:45:14.019Z,2.43
2018-04-19T16:47:42.122Z,2.97
2018-04-19T16:50:10.314Z,3.70
2018-04-19T16:52:38.406Z,2.90
2018-04-19T16:55:07.285Z,2.90
2018-04-19T16:57:35.477Z,2.80
2018-04-19T17:00:03.681Z,2.90
2018-04-19T17:02:31.844Z,2.70
2018-04-19T17:04:59.949Z,2.97
2018-04-19T17:07:28.098Z,3.00
2018-04-19T17:09:56.270Z,3.13
2018-04-19T17:12:24.362Z,4.67
2018-04-19T17:14:52.526Z,15.90
2018-04-19T17:17:20.643Z,9.80
2018-04-19T17:19:48.867Z,3.93
2018-04-19T17:22:16.962Z,3.00
2018-04-19T17:24:45.100Z,3.07
2018-04-19T17:27:13.218Z,3.00
2018-04-19T17:29:41.436Z,2.87
2018-04-19T17:32:10.344Z,3.30
2018-04-19T17:34:38.525Z,3.07
2018-04-19T17:37:06.627Z,3.10
2018-04-19T17:39:34.868Z,3.20
2018-04-19T17:42:03.008Z,3.50
2018-04-19T17:44:31.905Z,3.07
2018-04-19T17:47:00.818Z,3.10
2018-04-19T17:49:28.944Z,2.83
2018-04-19T17:51:57.075Z,3.00
2018-04-19T17:54:25.255Z,3.77
2018-04-19T17:56:53.362Z,4.10
2018-04-19T17:59:21.500Z,3.40
2018-04-19T18:01:58.299Z,3.90
2018-04-19T18:04:29.702Z,3.70
2018-04-19T18:06:59.759Z,3.83
2018-04-19T18:09:27.856Z,4.10
2018-04-19T18:11:56.064Z,3.90
2018-04-19T18:14:24.976Z,4.03
2018-04-19T18:16:53.153Z,3.73
2018-04-19T18:19:21.272Z,4.27
2018-04-19T18:21:49.410Z,4.83
2018-04-19T18:24:17.646Z,5.13
2018-04-19T18:29:31.068Z,6.37
2018-04-19T18:32:02.378Z,6.40
2018-04-19T18:34:31.369Z,5.93
2018-04-19T18:36:59.624Z,5.90
2018-04-19T18:39:27.750Z,5.80
2018-04-19T18:41:55.882Z,5.77
2018-04-19T18:44:24.058Z,4.97
2018-04-19T18:46:52.191Z,5.43
2018-04-19T18:49:21.123Z,5.33
2018-04-19T18:51:49.238Z,5.87
2018-04-19T18:54:17.472Z,6.90
2018-04-19T18:56:45.630Z,6.47
2018-04-19T18:59:13.819Z,7.17
2018-04-19T19:01:41.942Z,6.30
2018-04-19T19:04:10.064Z,6.60
2018-04-19T19:06:38.173Z,5.53
2018-04-19T19:09:06.296Z,5.57
2018-04-19T19:11:34.486Z,5.47
2018-04-19T19:14:02.646Z,5.40
2018-04-19T19:16:30.746Z,5.43
2018-04-19T19:19:12.050Z,5.40
2018-04-19T19:21:40.157Z,5.63
2018-04-19T19:24:09.062Z,5.80
2018-04-19T19:26:37.219Z,6.00
2018-04-19T19:29:06.118Z,5.33
2018-04-19T19:31:34.261Z,5.50
2018-04-19T19:34:02.389Z,5.07
2018-04-19T19:36:30.505Z,5.20
2018-04-19T19:38:58.616Z,5.07
2018-04-19T19:41:26.766Z,4.80
2018-04-19T19:43:54.886Z,4.80
2018-04-19T19:46:23.007Z,5.40
2018-04-19T19:48:51.178Z,5.20
2018-04-19T19:51:19.300Z,4.80
2018-04-19T19:53:47.472Z,5.23
2018-04-19T19:56:15.581Z,5.80
2018-04-19T19:58:43.694Z,5.10
2018-04-19T20:01:11.823Z,5.10
2018-04-19T20:03:40.055Z,5.23
2018-04-19T20:06:08.166Z,5.23
2018-04-19T20:08:36.275Z,5.43
2018-04-19T20:11:05.186Z,5.10
2018-04-19T20:13:33.344Z,5.10
2018-04-19T20:16:02.281Z,6.73
2018-04-19T20:18:30.417Z,6.10
2018-04-19T20:20:59.289Z,5.70
2018-04-19T20:23:28.179Z,5.83
2018-04-19T20:25:57.218Z,5.63
2018-04-19T20:28:25.331Z,6.07
2018-04-19T20:30:53.471Z,5.60
2018-04-19T20:33:21.591Z,5.80
2018-04-19T20:35:49.786Z,5.33
2018-04-19T20:38:18.668Z,5.80
2018-04-19T20:40:47.550Z,5.50
2018-04-19T20:43:16.475Z,5.40
2018-04-19T20:45:44.590Z,5.97
2018-04-19T20:48:12.720Z,5.70
2018-04-19T20:50:40.821Z,5.93
2018-04-19T20:53:08.978Z,6.20
2018-04-19T20:55:37.085Z,6.10
2018-04-19T20:58:05.201Z,6.23
2018-04-19T21:00:33.332Z,6.80
2018-04-19T21:03:02.227Z,6.83
2018-04-19T21:05:30.395Z,6.80
2018-04-19T21:07:58.490Z,6.83
2018-04-19T21:10:27.372Z,6.73
2018-04-19T21:12:55.554Z,7.10
2018-04-19T21:15:24.449Z,6.97
2018-04-19T21:17:52.630Z,5.90
2018-04-19T21:20:21.512Z,7.00
2018-04-19T21:22:50.415Z,6.80
2018-04-19T21:25:19.328Z,6.43
2018-04-19T21:27:47.438Z,7.17
2018-04-19T21:30:15.542Z,7.20
2018-04-19T21:32:44.463Z,6.60
2018-04-19T21:35:12.604Z,6.07
2018-04-19T21:37:41.484Z,6.87
2018-04-19T21:40:09.651Z,6.80
2018-04-19T21:42:37.777Z,6.67
2018-04-19T21:45:05.913Z,6.93
2018-04-19T21:47:34.235Z,7.57
2018-04-19T21:50:02.354Z,7.00
2018-04-19T21:52:30.519Z,7.43
2018-04-19T21:54:58.758Z,6.90
2018-04-19T21:57:26.857Z,6.37
2018-04-19T21:59:55.026Z,6.73
2018-04-19T22:02:23.200Z,6.60
2018-04-19T22:04:51.351Z,6.77
2018-04-19T22:07:19.492Z,8.33
2018-04-19T22:09:48.405Z,8.60
2018-04-19T22:12:16.547Z,6.27
2018-04-19T22:14:44.720Z,7.23
2018-04-19T22:17:12.948Z,6.80
2018-04-19T22:19:41.070Z,6.87
2018-04-19T22:22:09.972Z,7.60
2018-04-19T22:24:38.894Z,12.60
2018-04-19T22:27:07.038Z,10.00
2018-04-19T22:29:35.944Z,10.33
2018-04-19T22:32:04.074Z,8.40
2018-04-19T22:34:32.288Z,7.50
2018-04-19T22:37:00.424Z,7.07
2018-04-19T22:39:28.560Z,6.47
2018-04-19T22:41:56.732Z,7.47
2018-04-19T22:44:24.904Z,7.13
2018-04-19T22:46:53.106Z,7.00
2018-04-19T22:49:21.928Z,6.50
2018-04-19T22:51:50.796Z,6.93
2018-04-19T22:54:18.945Z,6.77
2018-04-19T22:56:47.099Z,7.27
2018-04-19T22:59:15.237Z,6.80
2018-04-19T23:01:45.400Z,6.80
2018-04-19T23:04:13.529Z,6.70
2018-04-19T23:06:41.648Z,7.00
2018-04-19T23:09:09.794Z,7.30
2018-04-19T23:11:38.687Z,7.30
2018-04-19T23:14:06.868Z,7.37
2018-04-19T23:16:35.008Z,7.57
2018-04-19T23:19:03.134Z,6.97
2018-04-19T23:21:31.258Z,7.60
2018-04-19T23:24:00.158Z,6.90
2018-04-19T23:26:29.078Z,7.17
2018-04-19T23:28:57.192Z,7.40
2018-04-19T23:31:25.374Z,7.17
2018-04-19T23:33:53.586Z,7.07
2018-04-19T23:36:21.727Z,7.23
2018-04-19T23:38:49.928Z,7.07
2018-04-19T23:41:18.107Z,7.00
2018-04-19T23:43:46.244Z,7.10
2018-04-19T23:46:14.445Z,7.17
2018-04-19T23:48:43.331Z,7.30
2018-04-19T23:51:12.228Z,7.27
2018-04-19T23:53:41.127Z,7.33
2018-04-19T23:56:09.289Z,7.50
2018-04-19T23:58:38.191Z,7.30
